KRUT

Rutland - Southern Vermont Regional Airport

Rutland, Vermont, USA
METAR KRUT 252156Z AUTO 20004KT 10SM OVC080 24/11 A2977 RMK AO2 RAE03 SLP096 P0000 T02390111 $
Observed Flight Rules
May-25 @ 21:56 UTC (31 minutes ago) Visual Flight Rules
Wind Visibility Clouds
200° at 4 knots 10 miles
  • Overcast at 8,000' AGL
Temperatures Readings Precipitation
Current 24°C / 75°F
Dewpoint 11°C / 52°F
Humidity 44%
Altimeter 29.77" Hg
Pressure 1009.6 hPa
Elevation 240
Current Rain 0.005
METAR KRUT 252156Z AUTO 20004KT 10SM OVC080 24/11 A2977 RMK AO2 RAE03 SLP096 P0000 T02390111 $
Observed Flight Rules
May-25 @ 21:56 UTC
(31 minutes ago)
VFR
Wind Visibility
200° at 4 knots 10 miles
Clouds
  • Overcast at 8,000' AGL
Temperature Dewpoint
24°C / 75°F 11°C / 52°F
Humidity Altimeter Pressure
44% 29.77" Hg 1009.6 hPa
Current Rain
0.005